Forside
METAR-TAF:

METAR-TAF

Lufthavne :

Payam

Karaj, Iran

Breddekreds: 35-46-34N, længdekreds: 050-49-36E, højde: 1271 m

Aktuelle vejr

Denne rapport blev lavet for 47 minutter siden, kl. 12:00 UTC
Vind 10 kt fra nordnordøst
Temperatur 28°C
Fugtighed 20%
Tryk 1019 hPa
Sigt: 7000 m
Nogle få skyer i en højde af 3500 ft, Cumulonimbus.
Nogle få skyer i en højde af 4000 ft
Brudte skyer i en højde af 10000 ft

METAR: OIIP 191200Z 02010KT 7000 FEW035CB FEW040 BKN100 28/03 Q1019

Tid: 17:17 (12:47 UTC)


TAF: fraværende

Vejrobservationer og prognoser fra mere end 4000 lufthavne (METAR og TAF).

De gule og røde prikker repræsenterer de meteorologiske stationer.

Flyt musen over at se navnet på stationen.

Så klik over at se vejr observationer og prognoser.

At skifte det kort: Klik på de grønne knapper med et sort kors for at zoome ind; på den grønne knap med en bindestreg for at zoome ud; eller på de grønne pile for tilstødende kort.


METAR-TAF: